ADDS METAR Data INFO
IDs: Format: Raw Decoded Include TAF

Data at: 1230 UTC 20 Jul 2017

METAR for:PAKF (False Pass Arpt, AK, US)
Text:PAKF 201201Z AUTO 29019G31KT 9SM OVC017 11/07 A2984 RMK AO2 PK WND 30031/1152 RAE1155 SLP199 P0001 60001 70007 T01060072 10111 20094 58002 $
Temperature: 10.6°C ( 51°F)
Dewpoint: 7.2°C ( 45°F) [RH = 79%]
Pressure (altimeter):29.84 inches Hg (1010.6 mb) [Sea level pressure: 1019.9 mb]
Winds:from the WNW (290 degrees) at 22 MPH (19 knots; 9.8 m/s) gusting to 36 MPH (31 knots; 15.9 m/s)
Visibility: 9 sm ( 14 km)
Ceiling:1700 feet AGL
Clouds: overcast cloud deck at 1700 feet AGL
QC Flag:automated observation with no human augmentation; SOME DATA ABOVE MAY BE INACCURATE!!!"$" is an indication the sensor requires maintenance.
Text:PAKF 201101Z AUTO 28016G28KT 5SM -RA BR BKN019 OVC024 10/08 A2984 RMK AO2 PK WND 30037/1014 RAE1024B1050 SLP198 P0000 T01000078 $
Temperature: 10.0°C ( 50°F)
Dewpoint: 7.8°C ( 46°F) [RH = 86%]
Pressure (altimeter):29.84 inches Hg (1010.6 mb) [Sea level pressure: 1019.8 mb]
Winds:from the W (280 degrees) at 18 MPH (16 knots; 8.2 m/s) gusting to 32 MPH (28 knots; 14.4 m/s)
Visibility: 5 sm ( 8 km)
Ceiling:1900 feet AGL
Clouds: broken clouds at 1900 feet AGL, overcast cloud deck at 2400 feet AGL
Weather:-RA BR (light rain, mist)
QC Flag:automated observation with no human augmentation; SOME DATA ABOVE MAY BE INACCURATE!!!"$" is an indication the sensor requires maintenance.
Text:PAKF 201001Z AUTO 28017G27KT 10SM -RA OVC017 10/07 A2984 RMK AO2 PK WND 28033/0916 SLP198 P0000 T01000072 $
Temperature: 10.0°C ( 50°F)
Dewpoint: 7.2°C ( 45°F) [RH = 83%]
Pressure (altimeter):29.84 inches Hg (1010.6 mb) [Sea level pressure: 1019.8 mb]
Winds:from the W (280 degrees) at 20 MPH (17 knots; 8.7 m/s) gusting to 31 MPH (27 knots; 13.9 m/s)
Visibility:10 or more sm (16+ km)
Ceiling:1700 feet AGL
Clouds: overcast cloud deck at 1700 feet AGL
Weather:-RA (light rain)
QC Flag:automated observation with no human augmentation; SOME DATA ABOVE MAY BE INACCURATE!!!"$" is an indication the sensor requires maintenance.
Text:PAKF 200929Z AUTO 28022G31KT 10SM -RA FEW008 OVC017 10/07 A2983 RMK AO2 PK WND 28033/0916 P0000 $
Temperature: 10.0°C ( 50°F)
Dewpoint: 7.0°C ( 45°F) [RH = 82%]
Pressure (altimeter):29.83 inches Hg (1010.2 mb)
Winds:from the W (280 degrees) at 25 MPH (22 knots; 11.3 m/s) gusting to 36 MPH (31 knots; 15.9 m/s)
Visibility:10 or more sm (16+ km)
Ceiling:1700 feet AGL
Clouds: few clouds at 800 feet AGL, overcast cloud deck at 1700 feet AGL
Weather:-RA (light rain)
QC Flag:automated observation with no human augmentation; SOME DATA ABOVE MAY BE INACCURATE!!!"$" is an indication the sensor requires maintenance.
Text:PAKF 200901Z AUTO 28019G28KT 9SM -RA OVC017 10/07 A2985 RMK AO2 PK WND 26032/0839 RAB0842 SLP201 P0000 60000 T01000067 401000100 56004 $
Temperature: 10.0°C ( 50°F)
Dewpoint: 6.7°C ( 44°F) [RH = 80%]
Pressure (altimeter):29.85 inches Hg (1010.9 mb) [Sea level pressure: 1020.1 mb]
Winds:from the W (280 degrees) at 22 MPH (19 knots; 9.8 m/s) gusting to 32 MPH (28 knots; 14.4 m/s)
Visibility: 9 sm ( 14 km)
Ceiling:1700 feet AGL
Clouds: overcast cloud deck at 1700 feet AGL
Weather:-RA (light rain)
QC Flag:automated observation with no human augmentation; SOME DATA ABOVE MAY BE INACCURATE!!!"$" is an indication the sensor requires maintenance.
Text:PAKF 200830Z AUTO 27022G31KT 10SM BKN017 OVC070 09/07 A2984 RMK AO2 PK WND 27031/0829 $
Temperature: 9.0°C ( 48°F)
Dewpoint: 7.0°C ( 45°F) [RH = 87%]
Pressure (altimeter):29.84 inches Hg (1010.6 mb)
Winds:from the W (270 degrees) at 25 MPH (22 knots; 11.3 m/s) gusting to 36 MPH (31 knots; 15.9 m/s)
Visibility:10 or more sm (16+ km)
Ceiling:1700 feet AGL
Clouds: broken clouds at 1700 feet AGL, overcast cloud deck at 7000 feet AGL
QC Flag:automated observation with no human augmentation; SOME DATA ABOVE MAY BE INACCURATE!!!"$" is an indication the sensor requires maintenance.
Text:PAKF 200801Z AUTO 27022G30KT 10SM OVC070 10/06 A2984 RMK AO2 PK WND 28034/0741 SLP200 T01000061 $
Temperature: 10.0°C ( 50°F)
Dewpoint: 6.1°C ( 43°F) [RH = 77%]
Pressure (altimeter):29.84 inches Hg (1010.6 mb) [Sea level pressure: 1020.0 mb]
Winds:from the W (270 degrees) at 25 MPH (22 knots; 11.3 m/s) gusting to 34 MPH (30 knots; 15.4 m/s)
Visibility:10 or more sm (16+ km)
Ceiling:7000 feet AGL
Clouds: overcast cloud deck at 7000 feet AGL
QC Flag:automated observation with no human augmentation; SOME DATA ABOVE MAY BE INACCURATE!!!"$" is an indication the sensor requires maintenance.
Text:PAKF 200701Z AUTO 27021G28KT 10SM FEW022 OVC075 11/07 A2985 RMK AO2 PK WND 27028/0701 SLP201 T01060067 $
Temperature: 10.6°C ( 51°F)
Dewpoint: 6.7°C ( 44°F) [RH = 77%]
Pressure (altimeter):29.85 inches Hg (1010.9 mb) [Sea level pressure: 1020.1 mb]
Winds:from the W (270 degrees) at 24 MPH (21 knots; 10.8 m/s) gusting to 32 MPH (28 knots; 14.4 m/s)
Visibility:10 or more sm (16+ km)
Ceiling:7500 feet AGL
Clouds: few clouds at 2200 feet AGL, overcast cloud deck at 7500 feet AGL
QC Flag:automated observation with no human augmentation; SOME DATA ABOVE MAY BE INACCURATE!!!"$" is an indication the sensor requires maintenance.
Text:PAKF 200646Z AUTO 29013G25KT 10SM FEW016 SCT022 OVC075 11/07 A2985 RMK AO2 PK WND 28026/0603 $
Temperature: 11.0°C ( 52°F)
Dewpoint: 7.0°C ( 45°F) [RH = 76%]
Pressure (altimeter):29.85 inches Hg (1010.9 mb)
Winds:from the WNW (290 degrees) at 15 MPH (13 knots; 6.7 m/s) gusting to 29 MPH (25 knots; 12.9 m/s)
Visibility:10 or more sm (16+ km)
Ceiling:7500 feet AGL
Clouds: few clouds at 1600 feet AGL, scattered clouds at 2200 feet AGL, overcast cloud deck at 7500 feet AGL
QC Flag:automated observation with no human augmentation; SOME DATA ABOVE MAY BE INACCURATE!!!"$" is an indication the sensor requires maintenance.

TAF for:PAKF (False Pass Arpt, AK, US)
Text:No data found